Time;durP1;ratioP1;P1;durP2;ratioP2;P2;SDS_P1;SDS_P2;PMS_P1;PMS_P2;Temp;Humidity;BMP_temperature;BMP_pressure;BME280_temperature;BME280_humidity;BME280_pressure;Samples;Min_cycle;Max_cycle;Signal;HPM_P1;HPM_P2
2022/08/10 00:02:42;;;;;;;;;;;22.10;46.00;;;;;;5105432;28;19927;-78
2022/08/10 00:05:08;;;;;;;;;;;22.10;46.10;;;;;;5111379;28;20374;-79
2022/08/10 00:07:34;;;;;;;;;;;22.00;46.10;;;;;;5107870;28;19916;-78
2022/08/10 00:10:01;;;;;;;;;;;21.90;46.30;;;;;;5106998;28;19919;-78
2022/08/10 00:12:27;;;;;;;;;;;22.00;46.30;;;;;;5094042;28;20357;-77
2022/08/10 00:14:53;;;;;;;;;;;22.00;46.30;;;;;;5105019;28;20284;-77
2022/08/10 00:17:18;;;;;;;;;;;22.00;46.20;;;;;;5112871;28;19920;-78
2022/08/10 00:19:45;;;;;;;;;;;22.00;46.20;;;;;;5109490;28;20364;-80
2022/08/10 00:22:10;;;;;;;;;;;22.00;46.10;;;;;;5109498;28;19916;-78
2022/08/10 00:24:37;;;;;;;;;;;22.10;46.00;;;;;;5079770;28;19912;-77
2022/08/10 00:27:06;;;;;;;;;;;22.00;46.20;;;;;;5109860;28;20893;-77
2022/08/10 00:29:32;;;;;;;;;;;21.90;46.40;;;;;;5112337;28;19911;-77
2022/08/10 00:31:58;;;;;;;;;;;21.70;46.50;;;;;;5112395;28;19923;-77
2022/08/10 00:34:24;;;;;;;;;;;21.60;46.80;;;;;;5109113;28;19912;-77
2022/08/10 00:36:50;;;;;;;;;;;21.50;46.90;;;;;;5109250;28;19920;-77
2022/08/10 00:39:16;;;;;;;;;;;21.50;47.10;;;;;;5107394;28;19919;-77
2022/08/10 00:41:42;;;;;;;;;;;21.50;47.20;;;;;;5110256;28;19978;-78
2022/08/10 00:44:08;;;;;;;;;;;21.50;47.30;;;;;;5075507;28;20114;-77
2022/08/10 00:46:34;;;;;;;;;;;21.30;47.50;;;;;;5112236;28;19926;-77
2022/08/10 00:49:00;;;;;;;;;;;21.20;47.60;;;;;;5111969;28;19912;-77
2022/08/10 00:51:26;;;;;;;;;;;21.10;48.10;;;;;;5106066;28;20399;-77
2022/08/10 00:53:52;;;;;;;;;;;20.90;48.40;;;;;;5109466;28;19913;-79
2022/08/10 00:56:18;;;;;;;;;;;20.80;48.90;;;;;;5111826;28;19937;-77
2022/08/10 00:58:45;;;;;;;;;;;20.70;49.40;;;;;;5109522;28;19912;-77
2022/08/10 01:01:11;;;;;;;;;;;20.50;49.90;;;;;;5105543;28;19916;-77
2022/08/10 01:03:37;;;;;;;;;;;20.30;50.70;;;;;;5112394;28;19923;-77
2022/08/10 01:06:22;;;;;;;;;;;20.00;51.40;;;;;;5108605;28;19912;-78
2022/08/10 01:08:51;;;;;;;;;;;19.70;52.20;;;;;;5108707;28;20233;-77
2022/08/10 01:11:30;;;;;;;;;;;19.40;52.80;;;;;;5088148;28;19919;-76
2022/08/10 01:14:05;;;;;;;;;;;19.10;53.50;;;;;;5106521;28;19922;-79
2022/08/10 01:16:33;;;;;;;;;;;19.00;54.10;;;;;;5111353;28;20458;-77
2022/08/10 01:19:17;;;;;;;;;;;18.90;54.30;;;;;;5112043;28;20272;-77
2022/08/10 01:22:02;;;;;;;;;;;18.70;54.90;;;;;;5111043;28;19920;-78
2022/08/10 01:24:43;;;;;;;;;;;18.60;55.00;;;;;;5101538;28;19916;-78
2022/08/10 01:27:12;;;;;;;;;;;18.50;54.90;;;;;;5092058;28;19927;-80
2022/08/10 01:29:54;;;;;;;;;;;18.50;55.40;;;;;;5106119;28;19923;-77
2022/08/10 01:32:31;;;;;;;;;;;18.40;55.10;;;;;;5090768;28;20261;-77
2022/08/10 01:35:11;;;;;;;;;;;18.40;55.90;;;;;;5102121;28;19912;-77
2022/08/10 01:37:38;;;;;;;;;;;18.40;55.00;;;;;;5107381;28;19916;-77
2022/08/10 01:40:05;;;;;;;;;;;18.40;55.40;;;;;;5109175;28;19915;-77
2022/08/10 01:42:33;;;;;;;;;;;18.40;55.40;;;;;;5105198;28;19924;-77
2022/08/10 01:45:01;;;;;;;;;;;18.40;55.40;;;;;;5107990;28;20368;-77
2022/08/10 01:50:22;;;;;;;;;;;18.40;55.30;;;;;;5104431;28;20280;-77
2022/08/10 01:52:50;;;;;;;;;;;18.30;55.50;;;;;;5108844;28;19915;-77
2022/08/10 01:55:16;;;;;;;;;;;18.30;55.50;;;;;;5107935;28;19912;-77
2022/08/10 01:57:44;;;;;;;;;;;18.30;56.00;;;;;;5107560;28;19912;-77
2022/08/10 02:00:11;;;;;;;;;;;18.30;56.00;;;;;;5110095;28;19916;-81
2022/08/10 02:02:39;;;;;;;;;;;18.20;58.10;;;;;;5115589;28;19923;-77
2022/08/10 02:05:06;;;;;;;;;;;18.00;57.90;;;;;;5111399;28;19912;-76
2022/08/10 02:07:33;;;;;;;;;;;18.00;57.20;;;;;;5112870;28;20296;-78
2022/08/10 02:10:01;;;;;;;;;;;17.80;57.30;;;;;;5096678;28;19919;-77
2022/08/10 02:12:29;;;;;;;;;;;17.70;58.60;;;;;;5113688;28;19911;-76
2022/08/10 02:14:59;;;;;;;;;;;17.60;58.30;;;;;;5095187;28;19908;-77
2022/08/10 02:17:27;;;;;;;;;;;17.40;59.10;;;;;;5113211;28;19911;-77
2022/08/10 02:19:55;;;;;;;;;;;17.30;59.70;;;;;;5113040;28;19939;-77
2022/08/10 02:22:22;;;;;;;;;;;17.30;59.50;;;;;;5110927;28;19915;-76
2022/08/10 02:24:49;;;;;;;;;;;17.20;60.60;;;;;;5112336;28;20328;-76
2022/08/10 02:27:16;;;;;;;;;;;17.20;59.90;;;;;;5108399;28;19920;-76
2022/08/10 02:29:43;;;;;;;;;;;17.10;60.70;;;;;;5112452;28;19919;-76
2022/08/10 02:32:10;;;;;;;;;;;17.10;60.80;;;;;;5109278;28;20387;-77
2022/08/10 02:34:37;;;;;;;;;;;17.00;61.00;;;;;;5114538;28;19912;-76
2022/08/10 02:37:04;;;;;;;;;;;17.00;61.50;;;;;;5117546;28;19915;-76
2022/08/10 02:39:31;;;;;;;;;;;16.90;62.10;;;;;;5126850;28;19927;-78
2022/08/10 02:41:59;;;;;;;;;;;16.90;61.90;;;;;;5139664;28;19910;-81
2022/08/10 02:44:28;;;;;;;;;;;16.80;62.60;;;;;;5128586;28;19922;-77
2022/08/10 02:46:59;;;;;;;;;;;16.70;63.00;;;;;;5111078;28;19919;-77
2022/08/10 02:49:27;;;;;;;;;;;16.70;63.40;;;;;;5112685;28;19919;-76
2022/08/10 02:51:58;;;;;;;;;;;16.50;64.00;;;;;;5092226;28;19912;-76
2022/08/10 02:54:25;;;;;;;;;;;16.40;64.80;;;;;;5094473;28;19919;-77
2022/08/10 02:57:03;;;;;;;;;;;16.40;67.00;;;;;;5109472;28;19919;-77
2022/08/10 02:59:37;;;;;;;;;;;16.40;67.80;;;;;;5112208;28;19912;-76
2022/08/10 03:02:04;;;;;;;;;;;16.40;68.20;;;;;;5113990;28;20369;-77
2022/08/10 03:04:33;;;;;;;;;;;16.40;69.20;;;;;;5112825;28;19912;-76
2022/08/10 03:07:01;;;;;;;;;;;16.50;69.30;;;;;;5113979;28;20256;-76
2022/08/10 03:09:28;;;;;;;;;;;16.50;70.70;;;;;;5113428;28;19919;-76
2022/08/10 03:11:55;;;;;;;;;;;16.50;70.10;;;;;;5113608;28;19912;-76
2022/08/10 03:14:21;;;;;;;;;;;16.40;71.40;;;;;;5076595;28;20361;-76
2022/08/10 03:16:48;;;;;;;;;;;16.40;71.40;;;;;;5111250;28;19916;-76
2022/08/10 03:19:16;;;;;;;;;;;16.40;71.80;;;;;;5111990;28;20356;-77
2022/08/10 03:21:42;;;;;;;;;;;16.50;72.40;;;;;;5113758;28;20372;-76
2022/08/10 03:24:09;;;;;;;;;;;16.50;71.60;;;;;;5111440;28;19923;-76
2022/08/10 03:26:36;;;;;;;;;;;16.60;71.70;;;;;;5095880;28;19920;-76
2022/08/10 03:29:03;;;;;;;;;;;16.50;72.10;;;;;;5089186;28;19919;-76
2022/08/10 03:31:30;;;;;;;;;;;16.50;72.70;;;;;;5109638;28;20383;-76
2022/08/10 03:33:57;;;;;;;;;;;16.50;72.90;;;;;;5112077;28;20301;-76
2022/08/10 03:36:23;;;;;;;;;;;16.50;72.60;;;;;;5088627;28;19916;-77
2022/08/10 03:38:52;;;;;;;;;;;16.40;73.80;;;;;;5110198;28;20292;-76
2022/08/10 03:41:21;;;;;;;;;;;16.40;74.10;;;;;;5110954;28;19920;-76
2022/08/10 03:43:48;;;;;;;;;;;16.40;74.50;;;;;;5111098;28;20335;-77
2022/08/10 03:46:17;;;;;;;;;;;16.40;75.20;;;;;;5109312;28;19912;-76
2022/08/10 03:48:43;;;;;;;;;;;16.40;74.80;;;;;;5112961;28;20292;-77
2022/08/10 03:51:09;;;;;;;;;;;16.40;74.90;;;;;;5106824;28;20275;-75
2022/08/10 03:53:35;;;;;;;;;;;16.40;74.90;;;;;;5107554;28;19911;-77
2022/08/10 03:56:02;;;;;;;;;;;16.40;75.40;;;;;;5106960;28;19920;-76
2022/08/10 03:58:28;;;;;;;;;;;16.40;76.10;;;;;;5108364;28;19919;-77
2022/08/10 04:00:55;;;;;;;;;;;16.40;75.20;;;;;;5111831;28;19923;-78
2022/08/10 04:03:21;;;;;;;;;;;16.30;75.30;;;;;;5109773;28;19916;-77
2022/08/10 04:05:47;;;;;;;;;;;16.20;76.20;;;;;;5106432;28;19964;-77
2022/08/10 04:08:13;;;;;;;;;;;16.10;77.00;;;;;;5105828;28;19911;-76
2022/08/10 04:10:39;;;;;;;;;;;16.00;77.20;;;;;;5107077;28;19919;-76
2022/08/10 04:13:05;;;;;;;;;;;16.00;77.30;;;;;;5106270;28;19913;-76
2022/08/10 04:15:31;;;;;;;;;;;16.00;77.70;;;;;;5111283;28;19930;-76
2022/08/10 04:17:57;;;;;;;;;;;16.00;78.60;;;;;;5107066;28;19967;-76
2022/08/10 04:20:30;;;;;;;;;;;15.90;79.00;;;;;;5109664;28;20006;-78
2022/08/10 04:22:59;;;;;;;;;;;15.80;79.90;;;;;;5107016;28;20369;-79
2022/08/10 04:25:26;;;;;;;;;;;15.80;80.50;;;;;;5109305;28;19931;-79
2022/08/10 04:27:52;;;;;;;;;;;15.90;80.30;;;;;;5111467;28;19912;-80
2022/08/10 04:30:19;;;;;;;;;;;15.90;80.70;;;;;;5107364;28;20277;-80
2022/08/10 04:32:46;;;;;;;;;;;15.90;80.60;;;;;;5110834;28;19918;-79
2022/08/10 04:35:12;;;;;;;;;;;15.90;80.90;;;;;;5109832;28;19912;-78
2022/08/10 04:37:39;;;;;;;;;;;15.90;80.50;;;;;;5107145;28;19923;-79
2022/08/10 04:40:06;;;;;;;;;;;15.90;80.90;;;;;;5112217;28;19919;-79
2022/08/10 04:42:32;;;;;;;;;;;16.00;80.10;;;;;;5112562;28;19916;-79
2022/08/10 04:44:58;;;;;;;;;;;15.90;80.90;;;;;;5110558;28;19912;-79
2022/08/10 04:47:24;;;;;;;;;;;15.90;80.50;;;;;;5111874;28;19912;-78
2022/08/10 04:49:50;;;;;;;;;;;15.90;82.40;;;;;;5102694;28;19919;-79
2022/08/10 04:52:16;;;;;;;;;;;16.00;81.30;;;;;;5110326;28;19912;-79
2022/08/10 04:54:42;;;;;;;;;;;16.10;80.40;;;;;;5110466;28;19912;-80
2022/08/10 04:57:08;;;;;;;;;;;16.50;78.90;;;;;;5093529;28;19965;-79
2022/08/10 04:59:34;;;;;;;;;;;17.40;74.40;;;;;;5111330;28;20407;-79
2022/08/10 05:02:00;;;;;;;;;;;18.40;70.00;;;;;;5111922;28;20380;-80
2022/08/10 05:04:26;;;;;;;;;;;19.40;65.50;;;;;;5108307;28;19916;-79
2022/08/10 05:06:52;;;;;;;;;;;20.10;62.00;;;;;;5112284;28;19927;-84
2022/08/10 05:09:18;;;;;;;;;;;20.40;60.20;;;;;;5112232;28;19911;-79
2022/08/10 05:11:44;;;;;;;;;;;20.80;58.90;;;;;;5111917;28;20342;-79
2022/08/10 05:14:10;;;;;;;;;;;21.00;57.70;;;;;;5092384;28;19911;-79
2022/08/10 05:16:36;;;;;;;;;;;21.30;57.00;;;;;;5106067;28;20399;-79
2022/08/10 05:19:02;;;;;;;;;;;21.50;56.40;;;;;;5107952;28;19919;-79
2022/08/10 05:21:28;;;;;;;;;;;21.50;56.00;;;;;;5106379;28;19926;-80
2022/08/10 05:23:54;;;;;;;;;;;21.40;55.70;;;;;;5110283;28;19938;-80
2022/08/10 05:26:20;;;;;;;;;;;21.50;56.00;;;;;;5087156;28;19927;-80
2022/08/10 05:28:46;;;;;;;;;;;22.00;54.70;;;;;;5107144;28;20010;-80
2022/08/10 05:31:12;;;;;;;;;;;22.20;54.20;;;;;;5116180;28;19912;-79
2022/08/10 05:33:38;;;;;;;;;;;22.30;54.30;;;;;;5103663;28;19923;-79
2022/08/10 05:36:05;;;;;;;;;;;22.50;53.90;;;;;;5115648;28;19912;-79
2022/08/10 05:38:31;;;;;;;;;;;22.80;53.20;;;;;;5107004;28;19913;-79
2022/08/10 05:40:58;;;;;;;;;;;22.60;53.20;;;;;;5108320;28;19916;-80
2022/08/10 05:43:24;;;;;;;;;;;22.70;53.10;;;;;;5106481;28;19912;-80
2022/08/10 05:45:50;;;;;;;;;;;22.90;52.70;;;;;;5111871;28;19919;-80
2022/08/10 05:48:16;;;;;;;;;;;23.10;53.50;;;;;;5104000;28;19912;-80
2022/08/10 05:50:42;;;;;;;;;;;23.20;52.50;;;;;;5110209;28;19912;-80
2022/08/10 05:53:08;;;;;;;;;;;23.40;51.80;;;;;;5096274;28;19942;-82
2022/08/10 05:55:35;;;;;;;;;;;23.10;52.10;;;;;;5107218;28;19912;-79
2022/08/10 05:58:01;;;;;;;;;;;23.10;52.30;;;;;;5113074;28;20292;-81
2022/08/10 06:00:28;;;;;;;;;;;22.90;52.30;;;;;;5111008;28;19919;-80
2022/08/10 06:02:56;;;;;;;;;;;23.10;52.10;;;;;;5108926;28;19916;-80
2022/08/10 06:05:23;;;;;;;;;;;23.40;52.80;;;;;;5113162;28;19916;-80
2022/08/10 06:08:00;;;;;;;;;;;23.70;50.90;;;;;;5114207;28;19916;-80
2022/08/10 06:10:27;;;;;;;;;;;23.70;50.80;;;;;;5114151;28;19911;-80
2022/08/10 06:15:39;;;;;;;;;;;24.20;51.00;;;;;;5113757;28;20273;-80
2022/08/10 06:18:05;;;;;;;;;;;24.60;49.60;;;;;;5114344;28;19912;-81
2022/08/10 06:20:32;;;;;;;;;;;24.40;49.70;;;;;;5113904;28;20292;-83
2022/08/10 06:23:00;;;;;;;;;;;24.20;49.90;;;;;;5109111;28;20101;-83
2022/08/10 06:25:27;;;;;;;;;;;24.20;50.80;;;;;;5113041;28;19927;-83
2022/08/10 06:27:55;;;;;;;;;;;24.60;49.20;;;;;;5111753;28;19926;-85
2022/08/10 06:30:21;;;;;;;;;;;25.10;49.60;;;;;;5114416;28;19920;-80
2022/08/10 06:32:52;;;;;;;;;;;25.80;48.00;;;;;;5110575;28;20269;-80
2022/08/10 06:35:18;;;;;;;;;;;25.30;48.10;;;;;;5112042;28;19916;-80
2022/08/10 06:37:45;;;;;;;;;;;25.30;48.90;;;;;;5113517;28;19920;-80
2022/08/10 06:40:11;;;;;;;;;;;25.90;47.80;;;;;;5111324;28;19907;-82
2022/08/10 06:42:39;;;;;;;;;;;26.10;47.90;;;;;;5109890;28;19920;-81
2022/08/10 06:45:14;;;;;;;;;;;26.40;46.50;;;;;;5110865;28;19920;-81
2022/08/10 06:47:42;;;;;;;;;;;26.80;45.90;;;;;;5107807;28;20392;-81
2022/08/10 06:50:16;;;;;;;;;;;26.90;45.80;;;;;;5113437;28;20304;-82
2022/08/10 06:52:42;;;;;;;;;;;27.30;44.50;;;;;;5110000;28;20238;-81
2022/08/10 06:55:11;;;;;;;;;;;28.10;45.00;;;;;;5105501;28;20106;-82
2022/08/10 06:57:38;;;;;;;;;;;29.00;43.50;;;;;;5114893;28;20368;-81
2022/08/10 07:00:04;;;;;;;;;;;29.40;42.40;;;;;;5113977;28;19908;-81
2022/08/10 07:02:40;;;;;;;;;;;28.60;43.60;;;;;;5112020;28;20315;-81
2022/08/10 07:05:07;;;;;;;;;;;29.00;42.90;;;;;;5111374;28;20280;-81
2022/08/10 07:07:38;;;;;;;;;;;28.40;43.70;;;;;;5120824;28;19922;-82
2022/08/10 07:10:04;;;;;;;;;;;28.10;44.50;;;;;;5123759;28;19912;-82
2022/08/10 07:12:31;;;;;;;;;;;28.00;43.90;;;;;;5119930;28;19907;-80
2022/08/10 07:14:58;;;;;;;;;;;28.40;44.40;;;;;;5132158;28;19903;-83
2022/08/10 07:17:25;;;;;;;;;;;28.40;44.20;;;;;;5138330;28;19900;-84
2022/08/10 07:19:53;;;;;;;;;;;28.80;44.50;;;;;;5124761;28;19923;-81
2022/08/10 07:22:21;;;;;;;;;;;30.40;44.70;;;;;;5110883;28;20284;-82
2022/08/10 07:24:47;;;;;;;;;;;31.10;41.80;;;;;;5112773;28;19915;-80
2022/08/10 07:27:15;;;;;;;;;;;30.00;40.30;;;;;;5112662;28;19919;-80
2022/08/10 07:29:43;;;;;;;;;;;30.00;40.80;;;;;;5094737;28;19923;-81
2022/08/10 07:32:10;;;;;;;;;;;30.90;40.60;;;;;;5115024;28;19916;-81
2022/08/10 07:34:37;;;;;;;;;;;31.70;39.90;;;;;;5111479;28;20276;-81
2022/08/10 07:37:04;;;;;;;;;;;30.70;40.80;;;;;;5110903;28;20379;-84
2022/08/10 07:39:34;;;;;;;;;;;30.40;40.50;;;;;;5103261;28;19919;-82
2022/08/10 07:42:01;;;;;;;;;;;29.80;40.50;;;;;;5103448;28;19916;-81
2022/08/10 07:44:28;;;;;;;;;;;30.50;42.20;;;;;;5105132;28;20280;-82
2022/08/10 07:46:55;;;;;;;;;;;30.50;39.40;;;;;;5107714;28;19911;-82
2022/08/10 07:49:24;;;;;;;;;;;29.90;40.30;;;;;;5107131;28;19911;-81
2022/08/10 07:51:51;;;;;;;;;;;30.60;39.50;;;;;;5110609;28;19919;-82
2022/08/10 07:54:17;;;;;;;;;;;30.20;39.30;;;;;;5111183;28;19935;-80
2022/08/10 07:56:45;;;;;;;;;;;30.10;40.20;;;;;;5112697;28;19911;-79
2022/08/10 07:59:14;;;;;;;;;;;29.50;39.40;;;;;;5106939;28;19912;-80
2022/08/10 08:01:43;;;;;;;;;;;29.50;39.90;;;;;;5106492;28;19915;-83
2022/08/10 08:04:11;;;;;;;;;;;29.10;39.50;;;;;;5106160;28;19931;-80
2022/08/10 08:06:37;;;;;;;;;;;29.10;39.90;;;;;;5108462;28;19916;-81
2022/08/10 08:09:04;;;;;;;;;;;29.00;40.00;;;;;;5108318;28;19911;-82
2022/08/10 08:11:31;;;;;;;;;;;28.90;39.50;;;;;;5103428;28;19919;-81
2022/08/10 08:13:57;;;;;;;;;;;29.30;39.40;;;;;;5108918;28;19934;-82
2022/08/10 08:16:24;;;;;;;;;;;29.80;39.50;;;;;;5106172;28;19935;-81
2022/08/10 08:18:51;;;;;;;;;;;30.00;38.90;;;;;;5112122;28;19919;-80
2022/08/10 08:21:17;;;;;;;;;;;30.00;39.30;;;;;;5112554;28;19915;-80
2022/08/10 08:23:45;;;;;;;;;;;30.30;38.40;;;;;;5106202;28;19916;-81
2022/08/10 08:26:11;;;;;;;;;;;30.50;38.70;;;;;;5106808;28;19927;-81
2022/08/10 08:28:37;;;;;;;;;;;30.40;38.50;;;;;;5107015;28;19912;-80
2022/08/10 08:31:03;;;;;;;;;;;31.00;37.80;;;;;;5108637;28;19911;-82
2022/08/10 08:33:30;;;;;;;;;;;29.80;38.20;;;;;;5109257;28;19916;-81
2022/08/10 08:35:57;;;;;;;;;;;30.10;38.30;;;;;;5106885;28;19916;-83
2022/08/10 08:38:25;;;;;;;;;;;29.90;38.20;;;;;;5112401;28;19919;-83
2022/08/10 08:41:00;;;;;;;;;;;31.00;37.90;;;;;;5110541;28;19912;-82
2022/08/10 08:43:45;;;;;;;;;;;31.50;37.40;;;;;;5113674;28;19927;-83
2022/08/10 08:46:17;;;;;;;;;;;31.10;37.90;;;;;;5103524;28;19912;-81
2022/08/10 08:49:05;;;;;;;;;;;30.30;38.20;;;;;;5110499;28;20391;-82
2022/08/10 08:51:46;;;;;;;;;;;30.70;38.60;;;;;;5111492;28;20276;-83
2022/08/10 08:54:12;;;;;;;;;;;31.30;36.70;;;;;;5111459;28;20364;-85
2022/08/10 08:56:50;;;;;;;;;;;31.20;38.40;;;;;;5105600;28;19912;-82
2022/08/10 08:59:34;;;;;;;;;;;30.60;37.40;;;;;;5110843;28;20201;-82
2022/08/10 09:02:18;;;;;;;;;;;31.30;37.80;;;;;;5113556;28;19924;-82
2022/08/10 09:04:48;;;;;;;;;;;30.40;37.30;;;;;;5109475;28;19923;-82
2022/08/10 09:07:20;;;;;;;;;;;31.70;38.00;;;;;;5112931;28;20377;-79
2022/08/10 09:09:55;;;;;;;;;;;31.30;36.80;;;;;;5117343;28;19919;-83
2022/08/10 09:12:39;;;;;;;;;;;31.00;37.40;;;;;;5098691;28;19912;-81
2022/08/10 09:15:20;;;;;;;;;;;31.00;36.60;;;;;;5111056;28;19934;-83
2022/08/10 09:18:05;;;;;;;;;;;30.20;37.50;;;;;;5110757;28;19923;-82
2022/08/10 09:20:40;;;;;;;;;;;30.80;38.40;;;;;;5117262;28;19935;-82
2022/08/10 09:23:09;;;;;;;;;;;31.50;37.40;;;;;;5113221;28;19931;-83
2022/08/10 09:25:36;;;;;;;;;;;31.80;36.20;;;;;;5116750;28;19919;-83
2022/08/10 09:28:04;;;;;;;;;;;32.50;36.40;;;;;;5116069;28;19919;-84
2022/08/10 09:30:32;;;;;;;;;;;31.70;35.00;;;;;;5114386;28;20375;-81
2022/08/10 09:33:08;;;;;;;;;;;29.50;36.10;;;;;;5097738;28;19916;-82
2022/08/10 09:35:43;;;;;;;;;;;28.80;37.00;;;;;;5110928;28;19914;-83
2022/08/10 09:38:36;;;;;;;;;;;28.50;37.70;;;;;;5114864;28;19944;-83
2022/08/10 09:41:05;;;;;;;;;;;28.00;38.20;;;;;;5106900;28;19911;-80
2022/08/10 09:43:46;;;;;;;;;;;29.30;37.30;;;;;;5111522;28;19920;-81
2022/08/10 09:46:24;;;;;;;;;;;29.20;37.20;;;;;;5113921;28;19916;-80
2022/08/10 09:49:13;;;;;;;;;;;29.10;37.40;;;;;;5114538;28;19919;-81
2022/08/10 09:51:51;;;;;;;;;;;28.60;37.70;;;;;;5116165;28;19938;-84
2022/08/10 09:54:36;;;;;;;;;;;29.50;37.40;;;;;;5092853;28;19915;-85
2022/08/10 09:57:14;;;;;;;;;;;30.10;36.30;;;;;;5110975;28;19912;-82
2022/08/10 09:59:46;;;;;;;;;;;30.00;36.80;;;;;;5110616;28;20364;-81
2022/08/10 10:02:15;;;;;;;;;;;29.90;36.60;;;;;;5115255;28;20372;-85
2022/08/10 10:04:59;;;;;;;;;;;30.50;36.30;;;;;;5112079;28;20340;-85
2022/08/10 10:07:26;;;;;;;;;;;29.60;36.90;;;;;;5116338;28;20371;-87
2022/08/10 10:10:06;;;;;;;;;;;29.50;37.20;;;;;;5113674;28;19912;-81
2022/08/10 10:12:48;;;;;;;;;;;29.50;36.50;;;;;;5113914;28;19912;-82
2022/08/10 10:15:20;;;;;;;;;;;29.40;36.50;;;;;;5110307;28;19919;-82
2022/08/10 10:18:01;;;;;;;;;;;28.90;37.20;;;;;;5112803;28;19934;-83
2022/08/10 10:20:30;;;;;;;;;;;28.80;36.70;;;;;;5115502;28;19912;-83
2022/08/10 10:23:09;;;;;;;;;;;28.90;36.90;;;;;;5112052;28;19923;-82
2022/08/10 10:25:38;;;;;;;;;;;28.70;37.10;;;;;;5110066;28;19923;-81
2022/08/10 10:28:23;;;;;;;;;;;28.50;36.80;;;;;;5115275;28;19911;-80
2022/08/10 10:31:23;;;;;;;;;;;28.60;36.00;;;;;;5114360;28;20416;-81
2022/08/10 10:33:58;;;;;;;;;;;28.10;36.80;;;;;;5107816;28;19938;-82
2022/08/10 10:36:25;;;;;;;;;;;28.40;37.20;;;;;;5114716;28;19945;-82
2022/08/10 10:38:53;;;;;;;;;;;28.80;36.80;;;;;;5113520;28;19919;-82
2022/08/10 10:41:31;;;;;;;;;;;29.00;36.20;;;;;;5109780;28;19920;-80
2022/08/10 10:44:11;;;;;;;;;;;29.20;36.80;;;;;;5109367;28;19911;-83
2022/08/10 10:46:37;;;;;;;;;;;28.50;36.40;;;;;;5110907;28;19912;-83
2022/08/10 10:49:22;;;;;;;;;;;28.20;36.80;;;;;;5110970;28;20006;-81
2022/08/10 10:52:03;;;;;;;;;;;28.50;36.90;;;;;;5114495;28;19912;-81
2022/08/10 10:54:48;;;;;;;;;;;28.40;36.80;;;;;;5113176;28;19922;-83
2022/08/10 10:57:20;;;;;;;;;;;28.60;37.20;;;;;;5107603;28;19912;-81
2022/08/10 11:00:00;;;;;;;;;;;28.60;36.80;;;;;;5114857;28;19916;-84
2022/08/10 11:02:44;;;;;;;;;;;28.60;36.70;;;;;;5112922;28;19994;-82
2022/08/10 11:05:10;;;;;;;;;;;28.80;36.50;;;;;;5107866;28;20360;-82
2022/08/10 11:07:42;;;;;;;;;;;28.50;36.70;;;;;;5115256;28;19923;-83
2022/08/10 11:10:10;;;;;;;;;;;28.50;36.70;;;;;;5114488;28;19966;-81
2022/08/10 11:12:40;;;;;;;;;;;29.10;36.20;;;;;;5112102;28;19916;-81
2022/08/10 11:15:08;;;;;;;;;;;29.20;36.40;;;;;;5111512;28;19923;-81
2022/08/10 11:17:34;;;;;;;;;;;28.80;36.30;;;;;;5108250;28;19912;-79
2022/08/10 11:20:18;;;;;;;;;;;28.30;36.60;;;;;;5113612;28;19951;-82
2022/08/10 11:23:00;;;;;;;;;;;28.40;36.10;;;;;;5095315;28;19920;-82
2022/08/10 11:25:36;;;;;;;;;;;28.60;36.60;;;;;;5112122;28;19926;-80
2022/08/10 11:28:09;;;;;;;;;;;28.60;36.20;;;;;;5113761;28;19919;-83
2022/08/10 11:30:35;;;;;;;;;;;28.60;36.80;;;;;;5113592;28;19912;-82
2022/08/10 11:33:13;;;;;;;;;;;28.70;36.90;;;;;;5111474;28;19916;-79
2022/08/10 11:35:39;;;;;;;;;;;28.70;36.90;;;;;;5110067;28;19911;-82
2022/08/10 11:38:05;;;;;;;;;;;28.90;36.30;;;;;;5114271;28;20258;-83
2022/08/10 11:40:37;;;;;;;;;;;29.20;36.70;;;;;;5110542;28;20327;-83
2022/08/10 11:43:09;;;;;;;;;;;29.50;36.30;;;;;;5116349;28;19920;-85
2022/08/10 11:45:40;;;;;;;;;;;29.20;36.50;;;;;;5125785;28;19911;-82
2022/08/10 11:48:41;;;;;;;;;;;29.00;36.60;;;;;;5124973;28;19927;-82
2022/08/10 11:51:17;;;;;;;;;;;29.00;36.70;;;;;;5047692;28;19917;-80
2022/08/10 11:53:58;;;;;;;;;;;29.20;36.40;;;;;;5124991;28;19900;-80
2022/08/10 11:56:28;;;;;;;;;;;29.20;36.20;;;;;;5115757;28;19923;-81
2022/08/10 12:01:40;;;;;;;;;;;29.20;36.60;;;;;;5111861;28;19924;-82
2022/08/10 12:04:07;;;;;;;;;;;29.10;36.40;;;;;;5112636;28;19912;-82
2022/08/10 12:06:35;;;;;;;;;;;29.00;36.10;;;;;;5096240;28;19916;-81
2022/08/10 12:09:03;;;;;;;;;;;29.30;36.30;;;;;;5115017;28;19916;-83
2022/08/10 12:11:30;;;;;;;;;;;29.60;36.20;;;;;;5114083;28;20369;-83
2022/08/10 12:13:59;;;;;;;;;;;29.40;35.70;;;;;;5112725;28;19912;-82
2022/08/10 12:16:26;;;;;;;;;;;29.40;35.80;;;;;;5113546;28;19919;-82
2022/08/10 12:18:53;;;;;;;;;;;29.40;36.00;;;;;;5114476;28;20280;-83
2022/08/10 12:21:29;;;;;;;;;;;29.40;35.50;;;;;;5110115;28;19924;-80
2022/08/10 12:23:56;;;;;;;;;;;29.50;35.40;;;;;;5093841;28;20387;-81
2022/08/10 12:26:27;;;;;;;;;;;29.30;35.60;;;;;;5113298;28;19920;-82
2022/08/10 12:29:07;;;;;;;;;;;29.00;35.70;;;;;;5088545;28;19912;-83
2022/08/10 12:31:41;;;;;;;;;;;29.60;36.00;;;;;;5111591;28;19912;-80
2022/08/10 12:34:26;;;;;;;;;;;29.60;36.00;;;;;;5089579;28;19912;-81
2022/08/10 12:36:56;;;;;;;;;;;29.80;35.90;;;;;;5108005;28;19922;-82
2022/08/10 12:39:26;;;;;;;;;;;29.80;35.80;;;;;;5110272;28;19919;-86
2022/08/10 12:41:59;;;;;;;;;;;30.00;35.20;;;;;;5107679;28;20304;-86
2022/08/10 12:44:48;;;;;;;;;;;29.50;35.50;;;;;;5105823;28;19919;-83
2022/08/10 12:47:25;;;;;;;;;;;29.80;35.50;;;;;;5109744;28;20280;-82
2022/08/10 12:50:01;;;;;;;;;;;29.60;35.50;;;;;;5111993;28;19919;-84
2022/08/10 12:52:33;;;;;;;;;;;29.60;35.70;;;;;;5106634;28;19911;-83
2022/08/10 12:55:01;;;;;;;;;;;29.60;35.60;;;;;;5090624;28;20392;-83
2022/08/10 12:57:28;;;;;;;;;;;29.70;35.70;;;;;;5110228;28;20276;-82
2022/08/10 12:59:56;;;;;;;;;;;29.90;35.30;;;;;;5108516;28;20174;-82
2022/08/10 13:02:27;;;;;;;;;;;29.90;35.40;;;;;;5113383;28;20297;-82
2022/08/10 13:04:54;;;;;;;;;;;29.90;35.50;;;;;;5112801;28;19919;-83
2022/08/10 13:07:23;;;;;;;;;;;29.80;35.60;;;;;;5115492;28;19927;-84
2022/08/10 13:09:49;;;;;;;;;;;29.70;35.20;;;;;;5097991;28;19919;-83
2022/08/10 13:12:16;;;;;;;;;;;29.70;35.50;;;;;;5115353;28;20360;-85
2022/08/10 13:15:08;;;;;;;;;;;29.90;35.40;;;;;;5105600;28;19919;-86
2022/08/10 13:17:35;;;;;;;;;;;29.80;35.10;;;;;;5106905;28;19923;-87
2022/08/10 13:20:04;;;;;;;;;;;29.50;35.10;;;;;;5112315;28;19919;-82
2022/08/10 13:22:32;;;;;;;;;;;29.60;35.50;;;;;;5113543;28;19924;-84
2022/08/10 13:25:00;;;;;;;;;;;29.70;34.70;;;;;;5110342;28;19912;-84
2022/08/10 13:27:28;;;;;;;;;;;29.90;34.80;;;;;;5095654;28;19920;-83
2022/08/10 13:29:56;;;;;;;;;;;30.00;34.80;;;;;;5095487;28;19912;-79
2022/08/10 13:32:25;;;;;;;;;;;30.20;34.40;;;;;;5113468;28;19915;-81
2022/08/10 13:34:53;;;;;;;;;;;30.00;34.80;;;;;;5113341;28;19912;-84
2022/08/10 13:37:21;;;;;;;;;;;30.00;34.50;;;;;;5111970;28;19916;-83
2022/08/10 13:39:49;;;;;;;;;;;29.90;34.80;;;;;;5113761;28;19916;-83
2022/08/10 13:42:17;;;;;;;;;;;30.20;33.80;;;;;;5104322;28;19927;-82
2022/08/10 13:44:45;;;;;;;;;;;30.30;34.20;;;;;;5107009;28;19908;-84
2022/08/10 13:47:12;;;;;;;;;;;30.30;34.20;;;;;;5094855;28;20276;-82
2022/08/10 13:49:58;;;;;;;;;;;30.40;34.00;;;;;;5108316;28;19919;-82
2022/08/10 13:52:26;;;;;;;;;;;30.10;34.10;;;;;;5095535;28;19919;-83
2022/08/10 13:54:54;;;;;;;;;;;30.10;34.50;;;;;;5087414;28;19912;-82
2022/08/10 13:57:22;;;;;;;;;;;29.90;34.40;;;;;;5116559;28;19916;-81
2022/08/10 13:59:50;;;;;;;;;;;30.00;33.80;;;;;;5095604;28;19920;-81
2022/08/10 14:02:21;;;;;;;;;;;30.30;33.70;;;;;;5116354;28;19919;-84
2022/08/10 14:04:48;;;;;;;;;;;30.40;33.70;;;;;;5109530;28;19935;-82
2022/08/10 14:07:15;;;;;;;;;;;30.50;33.50;;;;;;5114037;28;20336;-82
2022/08/10 14:09:42;;;;;;;;;;;30.70;33.80;;;;;;5111233;28;19923;-83
2022/08/10 14:12:09;;;;;;;;;;;30.90;33.40;;;;;;5111944;28;19920;-83
2022/08/10 14:14:36;;;;;;;;;;;30.70;34.00;;;;;;5116224;28;19918;-80
2022/08/10 14:17:03;;;;;;;;;;;30.10;33.80;;;;;;5115619;28;19912;-83
2022/08/10 14:19:30;;;;;;;;;;;30.10;33.80;;;;;;5113717;28;19912;-84
2022/08/10 14:21:56;;;;;;;;;;;30.10;33.60;;;;;;5108714;28;19920;-83
2022/08/10 14:24:29;;;;;;;;;;;30.30;33.60;;;;;;5114688;28;19931;-83
2022/08/10 14:27:01;;;;;;;;;;;30.40;33.60;;;;;;5094930;28;19964;-83
2022/08/10 14:29:28;;;;;;;;;;;30.60;34.40;;;;;;5112149;28;19919;-84
2022/08/10 14:31:56;;;;;;;;;;;31.20;33.50;;;;;;5115526;28;19911;-83
2022/08/10 14:34:26;;;;;;;;;;;31.10;33.30;;;;;;5112192;28;19919;-87
2022/08/10 14:36:54;;;;;;;;;;;30.40;32.80;;;;;;5111581;28;19916;-84
2022/08/10 14:39:25;;;;;;;;;;;30.40;33.20;;;;;;5096440;28;19916;-83
2022/08/10 14:41:52;;;;;;;;;;;30.30;33.50;;;;;;5113406;28;19923;-86